sensor_id;sensor_type;location;lat;lon;timestamp;P1;durP1;ratioP1;P2;durP2;ratioP2
16922;SDS011;8578;50.938;13.556;2022-12-26T00:01:59;3.17;;;1.00;;
16922;SDS011;8578;50.938;13.556;2022-12-26T00:04:26;1.50;;;1.03;;
16922;SDS011;8578;50.938;13.556;2022-12-26T00:07:15;3.23;;;1.10;;
16922;SDS011;8578;50.938;13.556;2022-12-26T00:09:43;1.60;;;0.97;;
16922;SDS011;8578;50.938;13.556;2022-12-26T00:12:11;3.10;;;1.10;;
16922;SDS011;8578;50.938;13.556;2022-12-26T00:14:38;1.93;;;1.10;;
16922;SDS011;8578;50.938;13.556;2022-12-26T00:17:06;2.53;;;1.00;;
16922;SDS011;8578;50.938;13.556;2022-12-26T00:19:33;1.10;;;0.80;;
16922;SDS011;8578;50.938;13.556;2022-12-26T00:22:01;2.43;;;1.00;;
16922;SDS011;8578;50.938;13.556;2022-12-26T00:24:30;1.20;;;1.00;;
16922;SDS011;8578;50.938;13.556;2022-12-26T00:26:57;1.83;;;1.07;;
16922;SDS011;8578;50.938;13.556;2022-12-26T00:29:24;2.07;;;1.40;;
16922;SDS011;8578;50.938;13.556;2022-12-26T00:31:52;2.13;;;1.10;;
16922;SDS011;8578;50.938;13.556;2022-12-26T00:34:19;1.87;;;1.13;;
16922;SDS011;8578;50.938;13.556;2022-12-26T00:36:47;1.87;;;1.40;;
16922;SDS011;8578;50.938;13.556;2022-12-26T00:39:15;2.37;;;1.30;;
16922;SDS011;8578;50.938;13.556;2022-12-26T00:41:44;1.97;;;1.07;;
16922;SDS011;8578;50.938;13.556;2022-12-26T00:44:11;2.90;;;1.13;;
16922;SDS011;8578;50.938;13.556;2022-12-26T00:46:39;1.70;;;1.30;;
16922;SDS011;8578;50.938;13.556;2022-12-26T00:49:06;1.73;;;1.07;;
16922;SDS011;8578;50.938;13.556;2022-12-26T00:51:33;3.07;;;1.43;;
16922;SDS011;8578;50.938;13.556;2022-12-26T00:54:01;1.93;;;1.20;;
16922;SDS011;8578;50.938;13.556;2022-12-26T00:56:28;2.27;;;1.20;;
16922;SDS011;8578;50.938;13.556;2022-12-26T00:58:57;2.67;;;1.10;;
16922;SDS011;8578;50.938;13.556;2022-12-26T01:01:24;1.37;;;0.97;;
16922;SDS011;8578;50.938;13.556;2022-12-26T01:03:58;1.53;;;1.00;;
16922;SDS011;8578;50.938;13.556;2022-12-26T01:06:25;2.67;;;1.10;;
16922;SDS011;8578;50.938;13.556;2022-12-26T01:08:53;3.20;;;1.13;;
16922;SDS011;8578;50.938;13.556;2022-12-26T01:11:20;1.70;;;1.20;;
16922;SDS011;8578;50.938;13.556;2022-12-26T01:14:03;2.70;;;0.90;;
16922;SDS011;8578;50.938;13.556;2022-12-26T01:16:31;2.03;;;1.20;;
16922;SDS011;8578;50.938;13.556;2022-12-26T01:18:59;1.80;;;1.23;;
16922;SDS011;8578;50.938;13.556;2022-12-26T01:21:27;3.47;;;1.37;;
16922;SDS011;8578;50.938;13.556;2022-12-26T01:23:54;1.80;;;1.20;;
16922;SDS011;8578;50.938;13.556;2022-12-26T01:26:22;1.40;;;1.03;;
16922;SDS011;8578;50.938;13.556;2022-12-26T01:28:49;2.10;;;1.20;;
16922;SDS011;8578;50.938;13.556;2022-12-26T01:31:19;2.20;;;1.30;;
16922;SDS011;8578;50.938;13.556;2022-12-26T01:33:47;1.23;;;1.00;;
16922;SDS011;8578;50.938;13.556;2022-12-26T01:36:15;7.23;;;1.43;;
16922;SDS011;8578;50.938;13.556;2022-12-26T01:38:42;1.57;;;1.20;;
16922;SDS011;8578;50.938;13.556;2022-12-26T01:41:10;2.43;;;1.20;;
16922;SDS011;8578;50.938;13.556;2022-12-26T01:43:49;2.23;;;1.10;;
16922;SDS011;8578;50.938;13.556;2022-12-26T01:46:20;2.00;;;1.20;;
16922;SDS011;8578;50.938;13.556;2022-12-26T01:48:48;1.87;;;1.20;;
16922;SDS011;8578;50.938;13.556;2022-12-26T01:51:16;2.03;;;1.10;;
16922;SDS011;8578;50.938;13.556;2022-12-26T01:53:45;1.73;;;1.10;;
16922;SDS011;8578;50.938;13.556;2022-12-26T01:56:15;2.03;;;1.30;;
16922;SDS011;8578;50.938;13.556;2022-12-26T01:58:45;2.30;;;1.40;;
16922;SDS011;8578;50.938;13.556;2022-12-26T02:01:15;1.60;;;1.13;;
16922;SDS011;8578;50.938;13.556;2022-12-26T02:03:44;2.47;;;1.30;;
16922;SDS011;8578;50.938;13.556;2022-12-26T02:06:30;3.17;;;1.00;;
16922;SDS011;8578;50.938;13.556;2022-12-26T02:08:57;1.47;;;1.13;;
16922;SDS011;8578;50.938;13.556;2022-12-26T02:11:26;1.73;;;1.17;;
16922;SDS011;8578;50.938;13.556;2022-12-26T02:13:55;1.87;;;1.17;;
16922;SDS011;8578;50.938;13.556;2022-12-26T02:16:22;2.77;;;1.40;;
16922;SDS011;8578;50.938;13.556;2022-12-26T02:18:52;4.77;;;1.40;;
16922;SDS011;8578;50.938;13.556;2022-12-26T02:21:26;6.67;;;1.83;;
16922;SDS011;8578;50.938;13.556;2022-12-26T02:26:47;2.47;;;1.33;;
16922;SDS011;8578;50.938;13.556;2022-12-26T02:29:26;3.67;;;1.27;;
16922;SDS011;8578;50.938;13.556;2022-12-26T02:32:00;2.50;;;1.13;;
16922;SDS011;8578;50.938;13.556;2022-12-26T02:34:34;2.50;;;1.13;;
16922;SDS011;8578;50.938;13.556;2022-12-26T02:37:10;2.70;;;1.07;;
16922;SDS011;8578;50.938;13.556;2022-12-26T02:39:48;3.17;;;1.37;;
16922;SDS011;8578;50.938;13.556;2022-12-26T02:42:20;1.97;;;1.27;;
16922;SDS011;8578;50.938;13.556;2022-12-26T02:44:51;2.83;;;1.40;;
16922;SDS011;8578;50.938;13.556;2022-12-26T02:47:41;2.93;;;1.30;;
16922;SDS011;8578;50.938;13.556;2022-12-26T02:50:13;2.37;;;1.27;;
16922;SDS011;8578;50.938;13.556;2022-12-26T02:53:02;1.90;;;1.37;;
16922;SDS011;8578;50.938;13.556;2022-12-26T02:55:49;1.93;;;1.13;;
16922;SDS011;8578;50.938;13.556;2022-12-26T02:58:35;1.83;;;1.10;;
16922;SDS011;8578;50.938;13.556;2022-12-26T03:01:23;2.30;;;1.50;;
16922;SDS011;8578;50.938;13.556;2022-12-26T03:04:12;2.10;;;1.50;;
16922;SDS011;8578;50.938;13.556;2022-12-26T03:06:57;3.03;;;1.33;;
16922;SDS011;8578;50.938;13.556;2022-12-26T03:09:43;3.60;;;1.60;;
16922;SDS011;8578;50.938;13.556;2022-12-26T03:12:32;3.83;;;1.40;;
16922;SDS011;8578;50.938;13.556;2022-12-26T03:15:18;1.97;;;1.40;;
16922;SDS011;8578;50.938;13.556;2022-12-26T03:17:48;3.33;;;1.40;;
16922;SDS011;8578;50.938;13.556;2022-12-26T03:20:17;2.87;;;1.50;;
16922;SDS011;8578;50.938;13.556;2022-12-26T03:22:46;3.77;;;1.40;;
16922;SDS011;8578;50.938;13.556;2022-12-26T03:25:16;1.87;;;1.20;;
16922;SDS011;8578;50.938;13.556;2022-12-26T03:28:03;3.37;;;1.70;;
16922;SDS011;8578;50.938;13.556;2022-12-26T03:30:30;1.70;;;1.17;;
16922;SDS011;8578;50.938;13.556;2022-12-26T03:33:15;2.83;;;1.30;;
16922;SDS011;8578;50.938;13.556;2022-12-26T03:36:02;1.63;;;1.30;;
16922;SDS011;8578;50.938;13.556;2022-12-26T03:38:32;4.77;;;1.40;;
16922;SDS011;8578;50.938;13.556;2022-12-26T03:41:02;1.93;;;1.33;;
16922;SDS011;8578;50.938;13.556;2022-12-26T03:43:58;2.33;;;1.13;;
16922;SDS011;8578;50.938;13.556;2022-12-26T03:46:51;3.00;;;1.33;;
16922;SDS011;8578;50.938;13.556;2022-12-26T03:49:49;1.60;;;1.00;;
16922;SDS011;8578;50.938;13.556;2022-12-26T03:52:37;1.47;;;1.13;;
16922;SDS011;8578;50.938;13.556;2022-12-26T03:55:24;3.73;;;1.37;;
16922;SDS011;8578;50.938;13.556;2022-12-26T03:58:12;4.53;;;1.43;;
16922;SDS011;8578;50.938;13.556;2022-12-26T04:00:58;2.57;;;1.20;;
16922;SDS011;8578;50.938;13.556;2022-12-26T04:03:44;1.73;;;1.10;;
16922;SDS011;8578;50.938;13.556;2022-12-26T04:06:31;1.33;;;1.00;;
16922;SDS011;8578;50.938;13.556;2022-12-26T04:09:20;1.40;;;1.00;;
16922;SDS011;8578;50.938;13.556;2022-12-26T04:12:08;2.37;;;1.10;;
16922;SDS011;8578;50.938;13.556;2022-12-26T04:14:56;2.70;;;1.07;;
16922;SDS011;8578;50.938;13.556;2022-12-26T04:17:43;2.10;;;1.20;;
16922;SDS011;8578;50.938;13.556;2022-12-26T04:20:31;2.03;;;1.00;;
16922;SDS011;8578;50.938;13.556;2022-12-26T04:23:00;2.10;;;1.00;;
16922;SDS011;8578;50.938;13.556;2022-12-26T04:25:50;1.47;;;0.90;;
16922;SDS011;8578;50.938;13.556;2022-12-26T04:28:37;0.87;;;0.80;;
16922;SDS011;8578;50.938;13.556;2022-12-26T04:31:24;1.00;;;0.70;;
16922;SDS011;8578;50.938;13.556;2022-12-26T04:34:11;1.27;;;1.03;;
16922;SDS011;8578;50.938;13.556;2022-12-26T04:36:59;2.77;;;0.87;;
16922;SDS011;8578;50.938;13.556;2022-12-26T04:39:46;1.63;;;0.90;;
16922;SDS011;8578;50.938;13.556;2022-12-26T04:42:33;1.77;;;0.70;;
16922;SDS011;8578;50.938;13.556;2022-12-26T04:45:19;1.33;;;0.90;;
16922;SDS011;8578;50.938;13.556;2022-12-26T04:47:48;1.60;;;1.03;;
16922;SDS011;8578;50.938;13.556;2022-12-26T04:50:29;2.20;;;0.97;;
16922;SDS011;8578;50.938;13.556;2022-12-26T04:52:57;2.47;;;1.10;;
16922;SDS011;8578;50.938;13.556;2022-12-26T04:55:28;2.37;;;0.70;;
16922;SDS011;8578;50.938;13.556;2022-12-26T04:57:57;1.80;;;1.00;;
16922;SDS011;8578;50.938;13.556;2022-12-26T05:00:25;1.07;;;0.93;;
16922;SDS011;8578;50.938;13.556;2022-12-26T05:02:53;1.57;;;0.77;;
16922;SDS011;8578;50.938;13.556;2022-12-26T05:05:45;1.57;;;1.10;;
16922;SDS011;8578;50.938;13.556;2022-12-26T05:08:34;2.63;;;0.90;;
16922;SDS011;8578;50.938;13.556;2022-12-26T05:11:19;1.13;;;0.83;;
16922;SDS011;8578;50.938;13.556;2022-12-26T05:13:48;2.37;;;1.30;;
16922;SDS011;8578;50.938;13.556;2022-12-26T05:16:17;2.67;;;0.80;;
16922;SDS011;8578;50.938;13.556;2022-12-26T05:19:02;3.97;;;1.30;;
16922;SDS011;8578;50.938;13.556;2022-12-26T05:21:47;2.27;;;1.13;;
16922;SDS011;8578;50.938;13.556;2022-12-26T05:24:32;2.67;;;1.17;;
16922;SDS011;8578;50.938;13.556;2022-12-26T05:27:18;2.00;;;1.10;;
16922;SDS011;8578;50.938;13.556;2022-12-26T05:30:06;3.47;;;1.10;;
16922;SDS011;8578;50.938;13.556;2022-12-26T05:32:33;1.30;;;1.20;;
16922;SDS011;8578;50.938;13.556;2022-12-26T05:35:19;1.50;;;1.13;;
16922;SDS011;8578;50.938;13.556;2022-12-26T05:37:46;3.30;;;1.30;;
16922;SDS011;8578;50.938;13.556;2022-12-26T05:40:13;2.47;;;1.20;;
16922;SDS011;8578;50.938;13.556;2022-12-26T05:42:41;1.60;;;1.20;;
16922;SDS011;8578;50.938;13.556;2022-12-26T05:45:10;3.20;;;1.40;;
16922;SDS011;8578;50.938;13.556;2022-12-26T05:47:37;1.87;;;1.17;;
16922;SDS011;8578;50.938;13.556;2022-12-26T05:50:05;4.40;;;1.47;;
16922;SDS011;8578;50.938;13.556;2022-12-26T05:52:33;2.03;;;1.23;;
16922;SDS011;8578;50.938;13.556;2022-12-26T05:55:00;2.73;;;1.40;;
16922;SDS011;8578;50.938;13.556;2022-12-26T05:57:27;2.70;;;1.30;;
16922;SDS011;8578;50.938;13.556;2022-12-26T05:59:55;1.77;;;1.10;;
16922;SDS011;8578;50.938;13.556;2022-12-26T06:02:23;5.33;;;1.33;;
16922;SDS011;8578;50.938;13.556;2022-12-26T06:04:52;1.33;;;1.00;;
16922;SDS011;8578;50.938;13.556;2022-12-26T06:07:19;2.10;;;1.20;;
16922;SDS011;8578;50.938;13.556;2022-12-26T06:09:47;2.67;;;1.27;;
16922;SDS011;8578;50.938;13.556;2022-12-26T06:12:14;3.77;;;1.60;;
16922;SDS011;8578;50.938;13.556;2022-12-26T06:14:42;2.03;;;1.00;;
16922;SDS011;8578;50.938;13.556;2022-12-26T06:17:09;4.70;;;1.40;;
16922;SDS011;8578;50.938;13.556;2022-12-26T06:19:38;2.90;;;1.47;;
16922;SDS011;8578;50.938;13.556;2022-12-26T06:22:12;3.47;;;1.10;;
16922;SDS011;8578;50.938;13.556;2022-12-26T06:24:39;4.10;;;1.57;;
16922;SDS011;8578;50.938;13.556;2022-12-26T06:27:06;2.53;;;1.40;;
16922;SDS011;8578;50.938;13.556;2022-12-26T06:29:34;1.87;;;1.30;;
16922;SDS011;8578;50.938;13.556;2022-12-26T06:32:01;2.30;;;1.27;;
16922;SDS011;8578;50.938;13.556;2022-12-26T06:34:29;3.20;;;1.40;;
16922;SDS011;8578;50.938;13.556;2022-12-26T06:36:58;4.00;;;1.23;;
16922;SDS011;8578;50.938;13.556;2022-12-26T06:39:26;2.53;;;1.40;;
16922;SDS011;8578;50.938;13.556;2022-12-26T06:41:53;2.00;;;1.27;;
16922;SDS011;8578;50.938;13.556;2022-12-26T06:44:21;1.40;;;1.10;;
16922;SDS011;8578;50.938;13.556;2022-12-26T06:46:50;1.97;;;1.10;;
16922;SDS011;8578;50.938;13.556;2022-12-26T06:49:17;1.63;;;1.00;;
16922;SDS011;8578;50.938;13.556;2022-12-26T06:51:44;4.07;;;1.27;;
16922;SDS011;8578;50.938;13.556;2022-12-26T06:54:13;2.37;;;1.23;;
16922;SDS011;8578;50.938;13.556;2022-12-26T06:56:40;1.87;;;1.20;;
16922;SDS011;8578;50.938;13.556;2022-12-26T06:59:10;2.10;;;1.43;;
16922;SDS011;8578;50.938;13.556;2022-12-26T07:01:37;6.77;;;1.40;;
16922;SDS011;8578;50.938;13.556;2022-12-26T07:04:05;2.77;;;1.13;;
16922;SDS011;8578;50.938;13.556;2022-12-26T07:06:33;4.07;;;0.90;;
16922;SDS011;8578;50.938;13.556;2022-12-26T07:09:02;2.87;;;0.93;;
16922;SDS011;8578;50.938;13.556;2022-12-26T07:11:32;4.50;;;1.20;;
16922;SDS011;8578;50.938;13.556;2022-12-26T07:13:59;2.63;;;1.20;;
16922;SDS011;8578;50.938;13.556;2022-12-26T07:16:27;3.27;;;1.20;;
16922;SDS011;8578;50.938;13.556;2022-12-26T07:18:55;1.90;;;1.30;;
16922;SDS011;8578;50.938;13.556;2022-12-26T07:21:23;4.93;;;1.40;;
16922;SDS011;8578;50.938;13.556;2022-12-26T07:23:52;1.80;;;1.20;;
16922;SDS011;8578;50.938;13.556;2022-12-26T07:26:20;1.83;;;1.23;;
16922;SDS011;8578;50.938;13.556;2022-12-26T07:28:48;1.47;;;0.97;;
16922;SDS011;8578;50.938;13.556;2022-12-26T07:31:18;1.97;;;1.17;;
16922;SDS011;8578;50.938;13.556;2022-12-26T07:33:46;2.83;;;1.20;;
16922;SDS011;8578;50.938;13.556;2022-12-26T07:36:14;2.00;;;1.30;;
16922;SDS011;8578;50.938;13.556;2022-12-26T07:38:41;1.33;;;1.23;;
16922;SDS011;8578;50.938;13.556;2022-12-26T07:41:09;2.30;;;1.40;;
16922;SDS011;8578;50.938;13.556;2022-12-26T07:43:55;3.03;;;1.37;;
16922;SDS011;8578;50.938;13.556;2022-12-26T07:46:23;1.87;;;1.23;;
16922;SDS011;8578;50.938;13.556;2022-12-26T07:48:50;6.60;;;1.90;;
16922;SDS011;8578;50.938;13.556;2022-12-26T07:51:19;3.83;;;2.03;;
16922;SDS011;8578;50.938;13.556;2022-12-26T07:53:47;4.10;;;1.83;;
16922;SDS011;8578;50.938;13.556;2022-12-26T07:56:15;3.17;;;1.70;;
16922;SDS011;8578;50.938;13.556;2022-12-26T07:58:42;3.40;;;1.50;;
16922;SDS011;8578;50.938;13.556;2022-12-26T08:01:11;2.57;;;1.50;;
16922;SDS011;8578;50.938;13.556;2022-12-26T08:03:38;2.50;;;1.70;;
16922;SDS011;8578;50.938;13.556;2022-12-26T08:06:07;2.70;;;1.23;;
16922;SDS011;8578;50.938;13.556;2022-12-26T08:08:35;3.20;;;1.30;;
16922;SDS011;8578;50.938;13.556;2022-12-26T08:11:04;1.43;;;1.20;;
16922;SDS011;8578;50.938;13.556;2022-12-26T08:13:31;2.67;;;1.03;;
16922;SDS011;8578;50.938;13.556;2022-12-26T08:16:03;2.17;;;1.30;;
16922;SDS011;8578;50.938;13.556;2022-12-26T08:18:31;1.67;;;0.90;;
16922;SDS011;8578;50.938;13.556;2022-12-26T08:20:59;1.67;;;1.03;;
16922;SDS011;8578;50.938;13.556;2022-12-26T08:23:26;3.07;;;1.13;;
16922;SDS011;8578;50.938;13.556;2022-12-26T08:25:54;1.33;;;1.00;;
16922;SDS011;8578;50.938;13.556;2022-12-26T08:28:21;1.57;;;0.90;;
16922;SDS011;8578;50.938;13.556;2022-12-26T08:30:49;1.63;;;1.10;;
16922;SDS011;8578;50.938;13.556;2022-12-26T08:33:16;0.80;;;0.80;;
16922;SDS011;8578;50.938;13.556;2022-12-26T08:35:45;1.00;;;0.70;;
16922;SDS011;8578;50.938;13.556;2022-12-26T08:38:12;2.20;;;1.00;;
16922;SDS011;8578;50.938;13.556;2022-12-26T08:40:40;3.97;;;1.10;;
16922;SDS011;8578;50.938;13.556;2022-12-26T08:43:09;2.50;;;1.00;;
16922;SDS011;8578;50.938;13.556;2022-12-26T08:45:57;1.00;;;0.70;;
16922;SDS011;8578;50.938;13.556;2022-12-26T08:48:25;2.50;;;1.10;;
16922;SDS011;8578;50.938;13.556;2022-12-26T08:50:58;1.90;;;1.17;;
16922;SDS011;8578;50.938;13.556;2022-12-26T08:53:27;2.10;;;0.80;;
16922;SDS011;8578;50.938;13.556;2022-12-26T08:55:55;2.17;;;1.27;;
16922;SDS011;8578;50.938;13.556;2022-12-26T08:58:22;3.03;;;1.00;;
16922;SDS011;8578;50.938;13.556;2022-12-26T09:00:50;2.70;;;0.80;;
16922;SDS011;8578;50.938;13.556;2022-12-26T09:03:20;2.40;;;1.20;;
16922;SDS011;8578;50.938;13.556;2022-12-26T09:05:48;1.67;;;1.00;;
16922;SDS011;8578;50.938;13.556;2022-12-26T09:08:19;2.43;;;1.07;;
16922;SDS011;8578;50.938;13.556;2022-12-26T09:10:46;1.30;;;0.70;;
16922;SDS011;8578;50.938;13.556;2022-12-26T09:13:13;4.07;;;1.03;;
16922;SDS011;8578;50.938;13.556;2022-12-26T09:15:41;2.50;;;1.27;;
16922;SDS011;8578;50.938;13.556;2022-12-26T09:18:08;2.00;;;0.93;;
16922;SDS011;8578;50.938;13.556;2022-12-26T09:20:36;2.17;;;1.10;;
16922;SDS011;8578;50.938;13.556;2022-12-26T09:23:04;3.60;;;1.07;;
16922;SDS011;8578;50.938;13.556;2022-12-26T09:25:37;1.30;;;1.00;;
16922;SDS011;8578;50.938;13.556;2022-12-26T09:28:04;3.17;;;0.97;;
16922;SDS011;8578;50.938;13.556;2022-12-26T09:30:31;2.80;;;1.30;;
16922;SDS011;8578;50.938;13.556;2022-12-26T09:32:59;2.53;;;1.10;;
16922;SDS011;8578;50.938;13.556;2022-12-26T09:35:26;2.83;;;1.40;;
16922;SDS011;8578;50.938;13.556;2022-12-26T09:37:54;1.70;;;1.03;;
16922;SDS011;8578;50.938;13.556;2022-12-26T09:40:22;2.20;;;1.20;;
16922;SDS011;8578;50.938;13.556;2022-12-26T09:43:00;3.17;;;1.10;;
16922;SDS011;8578;50.938;13.556;2022-12-26T09:45:36;1.33;;;1.07;;
16922;SDS011;8578;50.938;13.556;2022-12-26T09:48:10;0.47;;;0.47;;
16922;SDS011;8578;50.938;13.556;2022-12-26T09:50:41;2.73;;;1.40;;
16922;SDS011;8578;50.938;13.556;2022-12-26T09:53:11;6.93;;;1.30;;
16922;SDS011;8578;50.938;13.556;2022-12-26T09:55:41;2.93;;;0.93;;
16922;SDS011;8578;50.938;13.556;2022-12-26T09:58:13;3.43;;;1.10;;
16922;SDS011;8578;50.938;13.556;2022-12-26T10:00:43;3.00;;;1.20;;
16922;SDS011;8578;50.938;13.556;2022-12-26T10:03:12;2.53;;;1.17;;
16922;SDS011;8578;50.938;13.556;2022-12-26T10:05:40;4.03;;;1.40;;
16922;SDS011;8578;50.938;13.556;2022-12-26T10:08:12;1.00;;;0.80;;
16922;SDS011;8578;50.938;13.556;2022-12-26T10:10:48;1.60;;;1.10;;
16922;SDS011;8578;50.938;13.556;2022-12-26T10:13:20;1.10;;;0.90;;
16922;SDS011;8578;50.938;13.556;2022-12-26T10:15:49;1.47;;;0.97;;
16922;SDS011;8578;50.938;13.556;2022-12-26T10:18:21;2.93;;;1.10;;
16922;SDS011;8578;50.938;13.556;2022-12-26T10:20:57;3.03;;;0.93;;
16922;SDS011;8578;50.938;13.556;2022-12-26T10:23:30;2.00;;;1.20;;
16922;SDS011;8578;50.938;13.556;2022-12-26T10:26:00;1.10;;;0.90;;
16922;SDS011;8578;50.938;13.556;2022-12-26T10:28:33;3.77;;;1.03;;
16922;SDS011;8578;50.938;13.556;2022-12-26T10:31:04;2.27;;;1.40;;
16922;SDS011;8578;50.938;13.556;2022-12-26T10:33:34;2.27;;;0.90;;
16922;SDS011;8578;50.938;13.556;2022-12-26T10:36:03;1.30;;;0.93;;
16922;SDS011;8578;50.938;13.556;2022-12-26T10:38:32;1.87;;;1.03;;
16922;SDS011;8578;50.938;13.556;2022-12-26T10:41:02;1.97;;;1.00;;
16922;SDS011;8578;50.938;13.556;2022-12-26T10:43:32;2.90;;;1.20;;
16922;SDS011;8578;50.938;13.556;2022-12-26T10:46:13;1.43;;;1.20;;
16922;SDS011;8578;50.938;13.556;2022-12-26T10:48:42;3.40;;;1.27;;
16922;SDS011;8578;50.938;13.556;2022-12-26T10:51:10;4.87;;;1.60;;
16922;SDS011;8578;50.938;13.556;2022-12-26T10:53:39;3.33;;;0.90;;
16922;SDS011;8578;50.938;13.556;2022-12-26T10:56:07;2.53;;;1.30;;
16922;SDS011;8578;50.938;13.556;2022-12-26T10:58:43;3.07;;;1.10;;
16922;SDS011;8578;50.938;13.556;2022-12-26T11:01:33;1.50;;;0.90;;
16922;SDS011;8578;50.938;13.556;2022-12-26T11:04:02;1.87;;;1.20;;
16922;SDS011;8578;50.938;13.556;2022-12-26T11:06:31;2.13;;;1.23;;
16922;SDS011;8578;50.938;13.556;2022-12-26T11:08:59;1.50;;;0.90;;
16922;SDS011;8578;50.938;13.556;2022-12-26T11:11:27;2.70;;;0.90;;
16922;SDS011;8578;50.938;13.556;2022-12-26T11:14:29;1.33;;;0.53;;
16922;SDS011;8578;50.938;13.556;2022-12-26T11:17:02;1.57;;;1.10;;
16922;SDS011;8578;50.938;13.556;2022-12-26T11:19:30;1.70;;;0.90;;
16922;SDS011;8578;50.938;13.556;2022-12-26T11:22:13;1.73;;;1.20;;
16922;SDS011;8578;50.938;13.556;2022-12-26T11:24:40;2.30;;;1.10;;
16922;SDS011;8578;50.938;13.556;2022-12-26T11:27:15;2.17;;;0.90;;
16922;SDS011;8578;50.938;13.556;2022-12-26T11:29:44;1.30;;;1.00;;
16922;SDS011;8578;50.938;13.556;2022-12-26T11:32:15;3.70;;;0.97;;
16922;SDS011;8578;50.938;13.556;2022-12-26T11:34:44;2.47;;;1.13;;
16922;SDS011;8578;50.938;13.556;2022-12-26T11:37:18;2.13;;;0.80;;
16922;SDS011;8578;50.938;13.556;2022-12-26T11:39:48;1.10;;;0.77;;
16922;SDS011;8578;50.938;13.556;2022-12-26T11:42:17;1.67;;;0.90;;
16922;SDS011;8578;50.938;13.556;2022-12-26T11:44:47;2.50;;;1.73;;
16922;SDS011;8578;50.938;13.556;2022-12-26T11:47:18;1.10;;;0.70;;
16922;SDS011;8578;50.938;13.556;2022-12-26T11:49:50;0.80;;;0.80;;
16922;SDS011;8578;50.938;13.556;2022-12-26T11:52:30;2.30;;;1.03;;
16922;SDS011;8578;50.938;13.556;2022-12-26T11:54:59;6.83;;;0.90;;
16922;SDS011;8578;50.938;13.556;2022-12-26T11:57:28;1.07;;;0.60;;
16922;SDS011;8578;50.938;13.556;2022-12-26T12:00:11;0.80;;;0.73;;
16922;SDS011;8578;50.938;13.556;2022-12-26T12:02:40;2.30;;;0.73;;
16922;SDS011;8578;50.938;13.556;2022-12-26T12:05:11;1.00;;;0.80;;
16922;SDS011;8578;50.938;13.556;2022-12-26T12:07:45;1.40;;;0.73;;
16922;SDS011;8578;50.938;13.556;2022-12-26T12:10:29;1.40;;;0.80;;
16922;SDS011;8578;50.938;13.556;2022-12-26T12:13:01;1.33;;;0.80;;
16922;SDS011;8578;50.938;13.556;2022-12-26T12:15:34;1.30;;;0.90;;
16922;SDS011;8578;50.938;13.556;2022-12-26T12:18:04;1.40;;;0.80;;
16922;SDS011;8578;50.938;13.556;2022-12-26T12:20:35;1.23;;;0.70;;
16922;SDS011;8578;50.938;13.556;2022-12-26T12:23:15;1.87;;;0.83;;
16922;SDS011;8578;50.938;13.556;2022-12-26T12:25:50;1.60;;;0.77;;
16922;SDS011;8578;50.938;13.556;2022-12-26T12:31:09;1.50;;;0.77;;
16922;SDS011;8578;50.938;13.556;2022-12-26T12:33:42;1.10;;;0.60;;
16922;SDS011;8578;50.938;13.556;2022-12-26T12:36:15;1.17;;;0.70;;
16922;SDS011;8578;50.938;13.556;2022-12-26T12:38:56;1.13;;;0.83;;
16922;SDS011;8578;50.938;13.556;2022-12-26T12:41:39;1.50;;;0.70;;
16922;SDS011;8578;50.938;13.556;2022-12-26T12:44:09;1.10;;;0.80;;
16922;SDS011;8578;50.938;13.556;2022-12-26T12:46:44;1.43;;;0.70;;
16922;SDS011;8578;50.938;13.556;2022-12-26T12:49:20;1.30;;;0.60;;
16922;SDS011;8578;50.938;13.556;2022-12-26T12:51:51;0.40;;;0.40;;
16922;SDS011;8578;50.938;13.556;2022-12-26T12:54:34;2.07;;;1.23;;
16922;SDS011;8578;50.938;13.556;2022-12-26T12:57:05;1.43;;;1.00;;
16922;SDS011;8578;50.938;13.556;2022-12-26T12:59:38;1.40;;;0.60;;
16922;SDS011;8578;50.938;13.556;2022-12-26T13:02:18;1.20;;;0.60;;
16922;SDS011;8578;50.938;13.556;2022-12-26T13:04:50;0.77;;;0.50;;
16922;SDS011;8578;50.938;13.556;2022-12-26T13:07:19;1.93;;;0.80;;
16922;SDS011;8578;50.938;13.556;2022-12-26T13:09:48;2.53;;;0.97;;
16922;SDS011;8578;50.938;13.556;2022-12-26T13:12:18;1.37;;;0.80;;
16922;SDS011;8578;50.938;13.556;2022-12-26T13:14:47;1.23;;;0.73;;
16922;SDS011;8578;50.938;13.556;2022-12-26T13:17:19;1.43;;;0.57;;
16922;SDS011;8578;50.938;13.556;2022-12-26T13:19:50;1.30;;;0.60;;
16922;SDS011;8578;50.938;13.556;2022-12-26T13:22:28;0.40;;;0.30;;
16922;SDS011;8578;50.938;13.556;2022-12-26T13:25:17;0.97;;;0.40;;
16922;SDS011;8578;50.938;13.556;2022-12-26T13:27:44;1.40;;;0.43;;
16922;SDS011;8578;50.938;13.556;2022-12-26T13:30:14;0.73;;;0.50;;
16922;SDS011;8578;50.938;13.556;2022-12-26T13:32:43;2.70;;;0.50;;
16922;SDS011;8578;50.938;13.556;2022-12-26T13:37:55;2.50;;;0.57;;
16922;SDS011;8578;50.938;13.556;2022-12-26T13:40:25;0.57;;;0.40;;
16922;SDS011;8578;50.938;13.556;2022-12-26T13:42:54;1.17;;;0.50;;
16922;SDS011;8578;50.938;13.556;2022-12-26T13:51:07;1.00;;;0.67;;
16922;SDS011;8578;50.938;13.556;2022-12-26T13:53:55;0.20;;;0.20;;
16922;SDS011;8578;50.938;13.556;2022-12-26T13:59:12;0.73;;;0.50;;
16922;SDS011;8578;50.938;13.556;2022-12-26T14:01:46;0.97;;;0.30;;
16922;SDS011;8578;50.938;13.556;2022-12-26T14:04:28;0.10;;;0.10;;
16922;SDS011;8578;50.938;13.556;2022-12-26T14:07:05;0.47;;;0.40;;
16922;SDS011;8578;50.938;13.556;2022-12-26T14:09:38;1.10;;;0.50;;
16922;SDS011;8578;50.938;13.556;2022-12-26T14:12:19;1.23;;;0.57;;
16922;SDS011;8578;50.938;13.556;2022-12-26T14:14:52;0.47;;;0.33;;
16922;SDS011;8578;50.938;13.556;2022-12-26T14:17:30;0.43;;;0.20;;
16922;SDS011;8578;50.938;13.556;2022-12-26T14:20:02;0.60;;;0.40;;
16922;SDS011;8578;50.938;13.556;2022-12-26T14:22:37;1.47;;;0.40;;
16922;SDS011;8578;50.938;13.556;2022-12-26T14:25:12;1.60;;;0.30;;
16922;SDS011;8578;50.938;13.556;2022-12-26T14:27:44;0.73;;;0.30;;
16922;SDS011;8578;50.938;13.556;2022-12-26T14:30:18;0.20;;;0.10;;
16922;SDS011;8578;50.938;13.556;2022-12-26T14:32:50;0.20;;;0.20;;
16922;SDS011;8578;50.938;13.556;2022-12-26T14:35:27;0.30;;;0.20;;
16922;SDS011;8578;50.938;13.556;2022-12-26T14:38:02;1.00;;;0.40;;
16922;SDS011;8578;50.938;13.556;2022-12-26T14:40:31;0.67;;;0.33;;
16922;SDS011;8578;50.938;13.556;2022-12-26T14:45:46;0.50;;;0.37;;
16922;SDS011;8578;50.938;13.556;2022-12-26T14:53:45;1.03;;;0.40;;
16922;SDS011;8578;50.938;13.556;2022-12-26T14:56:29;1.37;;;0.60;;
16922;SDS011;8578;50.938;13.556;2022-12-26T15:01:49;0.90;;;0.60;;
16922;SDS011;8578;50.938;13.556;2022-12-26T15:04:40;0.57;;;0.57;;
16922;SDS011;8578;50.938;13.556;2022-12-26T15:07:25;1.10;;;0.60;;
16922;SDS011;8578;50.938;13.556;2022-12-26T15:10:06;2.43;;;0.60;;
16922;SDS011;8578;50.938;13.556;2022-12-26T15:13:02;0.73;;;0.50;;
16922;SDS011;8578;50.938;13.556;2022-12-26T15:15:36;1.67;;;0.73;;
16922;SDS011;8578;50.938;13.556;2022-12-26T15:18:09;1.00;;;0.80;;
16922;SDS011;8578;50.938;13.556;2022-12-26T15:20:48;1.40;;;0.70;;
16922;SDS011;8578;50.938;13.556;2022-12-26T15:23:24;1.77;;;0.70;;
16922;SDS011;8578;50.938;13.556;2022-12-26T15:26:00;0.80;;;0.53;;
16922;SDS011;8578;50.938;13.556;2022-12-26T15:28:39;0.70;;;0.50;;
16922;SDS011;8578;50.938;13.556;2022-12-26T15:31:24;1.20;;;0.70;;
16922;SDS011;8578;50.938;13.556;2022-12-26T15:33:55;0.97;;;0.70;;
16922;SDS011;8578;50.938;13.556;2022-12-26T15:36:27;1.00;;;0.60;;
16922;SDS011;8578;50.938;13.556;2022-12-26T15:38:57;1.00;;;0.70;;
16922;SDS011;8578;50.938;13.556;2022-12-26T15:41:28;1.37;;;0.80;;
16922;SDS011;8578;50.938;13.556;2022-12-26T15:44:03;1.07;;;0.80;;
16922;SDS011;8578;50.938;13.556;2022-12-26T15:46:34;1.30;;;0.70;;
16922;SDS011;8578;50.938;13.556;2022-12-26T15:49:25;1.60;;;0.83;;
16922;SDS011;8578;50.938;13.556;2022-12-26T15:51:58;1.00;;;0.70;;